sensor_id;sensor_type;location;lat;lon;timestamp;P1;durP1;ratioP1;P2;durP2;ratioP2
73107;SDS011;61559;50.476;15.588;2022-10-17T00:01:51;16.80;;;9.80;;
73107;SDS011;61559;50.476;15.588;2022-10-17T00:04:22;15.50;;;10.20;;
73107;SDS011;61559;50.476;15.588;2022-10-17T00:06:53;16.50;;;9.80;;
73107;SDS011;61559;50.476;15.588;2022-10-17T00:09:24;17.60;;;9.60;;
73107;SDS011;61559;50.476;15.588;2022-10-17T00:11:55;16.00;;;9.30;;
73107;SDS011;61559;50.476;15.588;2022-10-17T00:16:56;14.80;;;9.20;;
73107;SDS011;61559;50.476;15.588;2022-10-17T00:19:27;15.00;;;9.50;;
73107;SDS011;61559;50.476;15.588;2022-10-17T00:21:58;15.70;;;9.20;;
73107;SDS011;61559;50.476;15.588;2022-10-17T00:24:30;13.30;;;9.00;;
73107;SDS011;61559;50.476;15.588;2022-10-17T00:27:01;17.80;;;9.10;;
73107;SDS011;61559;50.476;15.588;2022-10-17T00:29:32;12.30;;;8.50;;
73107;SDS011;61559;50.476;15.588;2022-10-17T00:34:33;19.70;;;8.90;;
73107;SDS011;61559;50.476;15.588;2022-10-17T00:37:04;15.70;;;9.30;;
73107;SDS011;61559;50.476;15.588;2022-10-17T00:39:35;14.00;;;9.40;;
73107;SDS011;61559;50.476;15.588;2022-10-17T00:42:06;12.30;;;8.90;;
73107;SDS011;61559;50.476;15.588;2022-10-17T00:47:43;14.90;;;9.70;;
73107;SDS011;61559;50.476;15.588;2022-10-17T00:50:16;14.60;;;7.80;;
73107;SDS011;61559;50.476;15.588;2022-10-17T00:52:48;12.10;;;8.40;;
73107;SDS011;61559;50.476;15.588;2022-10-17T00:55:22;12.50;;;8.20;;
73107;SDS011;61559;50.476;15.588;2022-10-17T00:57:56;13.50;;;8.30;;
73107;SDS011;61559;50.476;15.588;2022-10-17T01:00:29;10.20;;;7.50;;
73107;SDS011;61559;50.476;15.588;2022-10-17T01:03:00;15.20;;;8.90;;
73107;SDS011;61559;50.476;15.588;2022-10-17T01:05:31;14.00;;;8.70;;
73107;SDS011;61559;50.476;15.588;2022-10-17T01:08:03;16.10;;;9.70;;
73107;SDS011;61559;50.476;15.588;2022-10-17T01:10:37;16.20;;;9.00;;
73107;SDS011;61559;50.476;15.588;2022-10-17T01:13:17;13.50;;;7.50;;
73107;SDS011;61559;50.476;15.588;2022-10-17T01:16:01;15.20;;;8.70;;
73107;SDS011;61559;50.476;15.588;2022-10-17T01:18:39;13.80;;;8.30;;
73107;SDS011;61559;50.476;15.588;2022-10-17T01:21:26;13.70;;;9.00;;
73107;SDS011;61559;50.476;15.588;2022-10-17T01:24:16;16.80;;;9.80;;
73107;SDS011;61559;50.476;15.588;2022-10-17T01:33:17;15.00;;;9.10;;
73107;SDS011;61559;50.476;15.588;2022-10-17T01:35:58;14.00;;;8.10;;
73107;SDS011;61559;50.476;15.588;2022-10-17T01:38:39;15.60;;;8.50;;
73107;SDS011;61559;50.476;15.588;2022-10-17T01:41:18;17.80;;;8.30;;
73107;SDS011;61559;50.476;15.588;2022-10-17T01:43:59;13.50;;;8.30;;
73107;SDS011;61559;50.476;15.588;2022-10-17T01:46:37;13.20;;;7.50;;
73107;SDS011;61559;50.476;15.588;2022-10-17T01:49:09;14.00;;;8.50;;
73107;SDS011;61559;50.476;15.588;2022-10-17T01:51:43;14.00;;;7.90;;
73107;SDS011;61559;50.476;15.588;2022-10-17T01:54:18;15.60;;;8.30;;
73107;SDS011;61559;50.476;15.588;2022-10-17T01:56:54;18.30;;;9.30;;
73107;SDS011;61559;50.476;15.588;2022-10-17T01:59:30;15.40;;;9.10;;
73107;SDS011;61559;50.476;15.588;2022-10-17T02:02:05;10.40;;;7.60;;
73107;SDS011;61559;50.476;15.588;2022-10-17T02:04:37;16.60;;;9.50;;
73107;SDS011;61559;50.476;15.588;2022-10-17T02:07:10;16.40;;;8.80;;
73107;SDS011;61559;50.476;15.588;2022-10-17T02:09:41;15.70;;;9.30;;
73107;SDS011;61559;50.476;15.588;2022-10-17T02:12:24;12.80;;;7.60;;
73107;SDS011;61559;50.476;15.588;2022-10-17T02:17:41;16.30;;;9.00;;
73107;SDS011;61559;50.476;15.588;2022-10-17T02:20:20;12.60;;;7.80;;
73107;SDS011;61559;50.476;15.588;2022-10-17T02:22:56;12.70;;;8.60;;
73107;SDS011;61559;50.476;15.588;2022-10-17T02:25:33;12.00;;;7.50;;
73107;SDS011;61559;50.476;15.588;2022-10-17T02:28:11;12.20;;;7.50;;
73107;SDS011;61559;50.476;15.588;2022-10-17T02:30:50;12.90;;;8.00;;
73107;SDS011;61559;50.476;15.588;2022-10-17T02:33:26;17.80;;;9.40;;
73107;SDS011;61559;50.476;15.588;2022-10-17T02:36:02;18.40;;;8.10;;
73107;SDS011;61559;50.476;15.588;2022-10-17T02:38:38;17.00;;;8.60;;
73107;SDS011;61559;50.476;15.588;2022-10-17T02:41:15;14.80;;;8.80;;
73107;SDS011;61559;50.476;15.588;2022-10-17T02:43:50;15.40;;;9.40;;
73107;SDS011;61559;50.476;15.588;2022-10-17T02:46:28;12.90;;;8.30;;
73107;SDS011;61559;50.476;15.588;2022-10-17T02:49:01;12.70;;;8.30;;
73107;SDS011;61559;50.476;15.588;2022-10-17T02:51:38;14.60;;;8.90;;
73107;SDS011;61559;50.476;15.588;2022-10-17T02:54:16;14.80;;;8.90;;
73107;SDS011;61559;50.476;15.588;2022-10-17T02:56:52;15.10;;;8.30;;
73107;SDS011;61559;50.476;15.588;2022-10-17T02:59:27;12.10;;;8.30;;
73107;SDS011;61559;50.476;15.588;2022-10-17T03:04:34;10.30;;;7.50;;
73107;SDS011;61559;50.476;15.588;2022-10-17T03:07:05;11.90;;;7.30;;
73107;SDS011;61559;50.476;15.588;2022-10-17T03:12:06;11.60;;;7.50;;
73107;SDS011;61559;50.476;15.588;2022-10-17T03:14:37;10.60;;;7.00;;
73107;SDS011;61559;50.476;15.588;2022-10-17T03:17:08;13.10;;;7.10;;
73107;SDS011;61559;50.476;15.588;2022-10-17T03:19:41;14.30;;;8.10;;
73107;SDS011;61559;50.476;15.588;2022-10-17T03:22:12;16.10;;;8.40;;
73107;SDS011;61559;50.476;15.588;2022-10-17T03:24:43;14.20;;;8.80;;
73107;SDS011;61559;50.476;15.588;2022-10-17T03:27:15;14.90;;;9.00;;
73107;SDS011;61559;50.476;15.588;2022-10-17T03:29:46;15.40;;;8.70;;
73107;SDS011;61559;50.476;15.588;2022-10-17T03:32:17;18.10;;;9.30;;
73107;SDS011;61559;50.476;15.588;2022-10-17T03:34:48;14.50;;;8.60;;
73107;SDS011;61559;50.476;15.588;2022-10-17T03:37:19;15.80;;;7.90;;
73107;SDS011;61559;50.476;15.588;2022-10-17T03:39:50;13.60;;;8.40;;
73107;SDS011;61559;50.476;15.588;2022-10-17T03:42:21;20.60;;;8.80;;
73107;SDS011;61559;50.476;15.588;2022-10-17T03:47:21;14.80;;;8.60;;
73107;SDS011;61559;50.476;15.588;2022-10-17T03:49:52;17.00;;;8.20;;
73107;SDS011;61559;50.476;15.588;2022-10-17T03:54:53;13.10;;;8.10;;
73107;SDS011;61559;50.476;15.588;2022-10-17T03:57:24;13.40;;;7.40;;
73107;SDS011;61559;50.476;15.588;2022-10-17T03:59:55;20.10;;;8.40;;
73107;SDS011;61559;50.476;15.588;2022-10-17T04:02:26;13.90;;;7.50;;
73107;SDS011;61559;50.476;15.588;2022-10-17T04:07:27;11.00;;;7.70;;
73107;SDS011;61559;50.476;15.588;2022-10-17T04:09:57;13.50;;;7.80;;
73107;SDS011;61559;50.476;15.588;2022-10-17T04:14:58;10.70;;;7.10;;
73107;SDS011;61559;50.476;15.588;2022-10-17T04:20:05;11.70;;;7.20;;
73107;SDS011;61559;50.476;15.588;2022-10-17T04:22:38;11.70;;;7.90;;
73107;SDS011;61559;50.476;15.588;2022-10-17T04:27:38;11.50;;;7.50;;
73107;SDS011;61559;50.476;15.588;2022-10-17T04:30:09;12.80;;;7.80;;
73107;SDS011;61559;50.476;15.588;2022-10-17T04:32:41;13.60;;;8.80;;
73107;SDS011;61559;50.476;15.588;2022-10-17T04:35:12;15.80;;;8.50;;
73107;SDS011;61559;50.476;15.588;2022-10-17T04:37:43;12.60;;;8.30;;
73107;SDS011;61559;50.476;15.588;2022-10-17T04:40:14;16.30;;;9.00;;
73107;SDS011;61559;50.476;15.588;2022-10-17T04:42:45;17.00;;;8.60;;
73107;SDS011;61559;50.476;15.588;2022-10-17T04:45:16;14.00;;;7.90;;
73107;SDS011;61559;50.476;15.588;2022-10-17T04:47:47;15.10;;;8.10;;
73107;SDS011;61559;50.476;15.588;2022-10-17T04:50:18;15.40;;;8.40;;
73107;SDS011;61559;50.476;15.588;2022-10-17T04:52:49;13.70;;;8.10;;
73107;SDS011;61559;50.476;15.588;2022-10-17T04:55:19;12.50;;;8.30;;
73107;SDS011;61559;50.476;15.588;2022-10-17T04:57:51;12.90;;;8.70;;
73107;SDS011;61559;50.476;15.588;2022-10-17T05:00:21;14.50;;;8.30;;
73107;SDS011;61559;50.476;15.588;2022-10-17T05:02:52;13.20;;;7.80;;
73107;SDS011;61559;50.476;15.588;2022-10-17T05:05:23;15.40;;;7.70;;
73107;SDS011;61559;50.476;15.588;2022-10-17T05:07:54;11.60;;;7.70;;
73107;SDS011;61559;50.476;15.588;2022-10-17T05:10:26;13.30;;;7.50;;
73107;SDS011;61559;50.476;15.588;2022-10-17T05:15:26;13.00;;;7.30;;
73107;SDS011;61559;50.476;15.588;2022-10-17T05:17:59;13.00;;;7.30;;
73107;SDS011;61559;50.476;15.588;2022-10-17T05:20:31;11.40;;;7.30;;
73107;SDS011;61559;50.476;15.588;2022-10-17T05:23:02;11.20;;;6.80;;
73107;SDS011;61559;50.476;15.588;2022-10-17T05:25:34;12.10;;;7.60;;
73107;SDS011;61559;50.476;15.588;2022-10-17T05:28:10;15.60;;;9.60;;
73107;SDS011;61559;50.476;15.588;2022-10-17T05:30:44;13.60;;;7.60;;
73107;SDS011;61559;50.476;15.588;2022-10-17T05:33:19;11.20;;;7.30;;
73107;SDS011;61559;50.476;15.588;2022-10-17T05:35:55;10.10;;;7.50;;
73107;SDS011;61559;50.476;15.588;2022-10-17T05:38:49;11.90;;;7.70;;
73107;SDS011;61559;50.476;15.588;2022-10-17T05:41:20;11.00;;;7.10;;
73107;SDS011;61559;50.476;15.588;2022-10-17T05:46:20;9.90;;;6.30;;
73107;SDS011;61559;50.476;15.588;2022-10-17T05:48:52;10.60;;;6.50;;
73107;SDS011;61559;50.476;15.588;2022-10-17T05:51:23;12.30;;;7.60;;
73107;SDS011;61559;50.476;15.588;2022-10-17T05:53:54;10.70;;;7.20;;
73107;SDS011;61559;50.476;15.588;2022-10-17T05:56:25;11.40;;;6.90;;
73107;SDS011;61559;50.476;15.588;2022-10-17T05:58:56;11.00;;;6.70;;
73107;SDS011;61559;50.476;15.588;2022-10-17T06:01:28;13.70;;;7.30;;
73107;SDS011;61559;50.476;15.588;2022-10-17T06:03:59;10.80;;;7.40;;
73107;SDS011;61559;50.476;15.588;2022-10-17T06:06:30;11.50;;;7.30;;
73107;SDS011;61559;50.476;15.588;2022-10-17T06:09:01;8.50;;;6.70;;
73107;SDS011;61559;50.476;15.588;2022-10-17T06:11:33;12.40;;;7.30;;
73107;SDS011;61559;50.476;15.588;2022-10-17T06:14:04;8.30;;;6.10;;
73107;SDS011;61559;50.476;15.588;2022-10-17T06:16:35;11.40;;;7.60;;
73107;SDS011;61559;50.476;15.588;2022-10-17T06:21:36;14.40;;;7.60;;
73107;SDS011;61559;50.476;15.588;2022-10-17T06:24:07;12.10;;;6.80;;
73107;SDS011;61559;50.476;15.588;2022-10-17T06:29:07;15.70;;;8.10;;
73107;SDS011;61559;50.476;15.588;2022-10-17T06:31:38;11.60;;;7.40;;
73107;SDS011;61559;50.476;15.588;2022-10-17T06:34:09;28.10;;;14.70;;
73107;SDS011;61559;50.476;15.588;2022-10-17T06:36:40;20.40;;;12.30;;
73107;SDS011;61559;50.476;15.588;2022-10-17T06:39:11;23.70;;;13.30;;
73107;SDS011;61559;50.476;15.588;2022-10-17T06:41:42;29.90;;;16.70;;
73107;SDS011;61559;50.476;15.588;2022-10-17T06:49:12;35.30;;;18.40;;
73107;SDS011;61559;50.476;15.588;2022-10-17T06:51:44;22.90;;;13.40;;
73107;SDS011;61559;50.476;15.588;2022-10-17T06:56:44;16.20;;;9.60;;
73107;SDS011;61559;50.476;15.588;2022-10-17T07:01:44;10.70;;;7.50;;
73107;SDS011;61559;50.476;15.588;2022-10-17T07:04:16;15.40;;;8.30;;
73107;SDS011;61559;50.476;15.588;2022-10-17T07:06:46;19.60;;;10.40;;
73107;SDS011;61559;50.476;15.588;2022-10-17T07:09:17;24.40;;;13.10;;
73107;SDS011;61559;50.476;15.588;2022-10-17T07:11:50;14.40;;;8.80;;
73107;SDS011;61559;50.476;15.588;2022-10-17T07:14:20;13.70;;;8.80;;
73107;SDS011;61559;50.476;15.588;2022-10-17T07:16:58;16.30;;;9.70;;
73107;SDS011;61559;50.476;15.588;2022-10-17T07:19:29;15.40;;;10.10;;
73107;SDS011;61559;50.476;15.588;2022-10-17T07:24:30;70.00;;;31.80;;
73107;SDS011;61559;50.476;15.588;2022-10-17T07:27:01;38.20;;;21.80;;
73107;SDS011;61559;50.476;15.588;2022-10-17T07:29:32;23.20;;;14.30;;
73107;SDS011;61559;50.476;15.588;2022-10-17T07:34:35;19.40;;;11.90;;
73107;SDS011;61559;50.476;15.588;2022-10-17T07:39:55;28.10;;;14.90;;
73107;SDS011;61559;50.476;15.588;2022-10-17T07:44:55;28.20;;;13.90;;
73107;SDS011;61559;50.476;15.588;2022-10-17T07:47:27;27.40;;;14.60;;
73107;SDS011;61559;50.476;15.588;2022-10-17T07:49:59;32.30;;;16.10;;
73107;SDS011;61559;50.476;15.588;2022-10-17T07:52:30;27.90;;;14.20;;
73107;SDS011;61559;50.476;15.588;2022-10-17T07:57:30;25.90;;;13.10;;
73107;SDS011;61559;50.476;15.588;2022-10-17T08:00:01;28.00;;;14.40;;
73107;SDS011;61559;50.476;15.588;2022-10-17T08:02:33;27.80;;;14.00;;
73107;SDS011;61559;50.476;15.588;2022-10-17T08:05:04;27.30;;;14.60;;
73107;SDS011;61559;50.476;15.588;2022-10-17T08:07:36;24.40;;;12.80;;
73107;SDS011;61559;50.476;15.588;2022-10-17T08:10:09;22.10;;;11.70;;
73107;SDS011;61559;50.476;15.588;2022-10-17T08:12:42;25.60;;;13.60;;
73107;SDS011;61559;50.476;15.588;2022-10-17T08:15:13;26.70;;;14.00;;
73107;SDS011;61559;50.476;15.588;2022-10-17T08:17:44;22.30;;;13.60;;
73107;SDS011;61559;50.476;15.588;2022-10-17T08:20:14;19.90;;;12.00;;
73107;SDS011;61559;50.476;15.588;2022-10-17T08:22:51;26.20;;;13.70;;
73107;SDS011;61559;50.476;15.588;2022-10-17T08:25:22;24.80;;;12.00;;
73107;SDS011;61559;50.476;15.588;2022-10-17T08:27:54;24.30;;;12.90;;
73107;SDS011;61559;50.476;15.588;2022-10-17T08:30:26;23.30;;;13.20;;
73107;SDS011;61559;50.476;15.588;2022-10-17T08:32:58;23.60;;;12.70;;
73107;SDS011;61559;50.476;15.588;2022-10-17T08:35:29;23.90;;;12.80;;
73107;SDS011;61559;50.476;15.588;2022-10-17T08:38:00;24.70;;;13.80;;
73107;SDS011;61559;50.476;15.588;2022-10-17T08:40:31;22.40;;;11.60;;
73107;SDS011;61559;50.476;15.588;2022-10-17T08:43:07;24.70;;;11.80;;
73107;SDS011;61559;50.476;15.588;2022-10-17T08:45:51;23.60;;;13.20;;
73107;SDS011;61559;50.476;15.588;2022-10-17T08:48:27;23.40;;;12.20;;
73107;SDS011;61559;50.476;15.588;2022-10-17T08:51:02;21.80;;;12.70;;
73107;SDS011;61559;50.476;15.588;2022-10-17T08:53:40;23.50;;;12.10;;
73107;SDS011;61559;50.476;15.588;2022-10-17T08:56:16;21.40;;;12.80;;
73107;SDS011;61559;50.476;15.588;2022-10-17T08:59:11;20.90;;;12.30;;
73107;SDS011;61559;50.476;15.588;2022-10-17T09:01:46;23.70;;;13.10;;
73107;SDS011;61559;50.476;15.588;2022-10-17T09:04:29;20.00;;;12.00;;
73107;SDS011;61559;50.476;15.588;2022-10-17T09:07:11;19.60;;;11.80;;
73107;SDS011;61559;50.476;15.588;2022-10-17T09:09:48;20.40;;;12.40;;
73107;SDS011;61559;50.476;15.588;2022-10-17T09:12:30;21.50;;;12.00;;
73107;SDS011;61559;50.476;15.588;2022-10-17T09:18:04;21.90;;;12.90;;
73107;SDS011;61559;50.476;15.588;2022-10-17T09:20:45;20.80;;;12.20;;
73107;SDS011;61559;50.476;15.588;2022-10-17T09:23:20;24.50;;;12.90;;
73107;SDS011;61559;50.476;15.588;2022-10-17T09:25:54;18.60;;;11.40;;
73107;SDS011;61559;50.476;15.588;2022-10-17T09:28:28;20.20;;;11.70;;
73107;SDS011;61559;50.476;15.588;2022-10-17T09:31:03;20.70;;;11.90;;
73107;SDS011;61559;50.476;15.588;2022-10-17T09:33:40;19.50;;;11.70;;
73107;SDS011;61559;50.476;15.588;2022-10-17T09:36:23;24.30;;;13.00;;
73107;SDS011;61559;50.476;15.588;2022-10-17T09:38:57;22.90;;;12.80;;
73107;SDS011;61559;50.476;15.588;2022-10-17T09:41:31;18.20;;;11.30;;
73107;SDS011;61559;50.476;15.588;2022-10-17T09:44:16;22.50;;;11.60;;
73107;SDS011;61559;50.476;15.588;2022-10-17T09:49:47;21.10;;;11.80;;
73107;SDS011;61559;50.476;15.588;2022-10-17T09:52:19;18.20;;;11.60;;
73107;SDS011;61559;50.476;15.588;2022-10-17T09:54:55;20.60;;;11.40;;
73107;SDS011;61559;50.476;15.588;2022-10-17T09:57:29;19.90;;;11.60;;
73107;SDS011;61559;50.476;15.588;2022-10-17T10:00:25;20.40;;;11.40;;
73107;SDS011;61559;50.476;15.588;2022-10-17T10:03:13;20.70;;;12.10;;
73107;SDS011;61559;50.476;15.588;2022-10-17T10:05:58;19.20;;;11.70;;
73107;SDS011;61559;50.476;15.588;2022-10-17T10:08:32;18.70;;;11.70;;
73107;SDS011;61559;50.476;15.588;2022-10-17T10:11:06;19.10;;;11.00;;
73107;SDS011;61559;50.476;15.588;2022-10-17T10:13:41;17.00;;;10.20;;
73107;SDS011;61559;50.476;15.588;2022-10-17T10:16:14;22.80;;;12.30;;
73107;SDS011;61559;50.476;15.588;2022-10-17T10:18:48;19.40;;;11.80;;
73107;SDS011;61559;50.476;15.588;2022-10-17T10:21:21;19.90;;;11.30;;
73107;SDS011;61559;50.476;15.588;2022-10-17T10:24:03;19.60;;;11.60;;
73107;SDS011;61559;50.476;15.588;2022-10-17T10:26:41;20.80;;;11.90;;
73107;SDS011;61559;50.476;15.588;2022-10-17T10:29:22;20.50;;;10.90;;
73107;SDS011;61559;50.476;15.588;2022-10-17T10:32:01;17.80;;;12.20;;
73107;SDS011;61559;50.476;15.588;2022-10-17T10:34:47;18.50;;;11.40;;
73107;SDS011;61559;50.476;15.588;2022-10-17T10:39:52;21.40;;;11.40;;
73107;SDS011;61559;50.476;15.588;2022-10-17T10:42:26;17.10;;;10.00;;
73107;SDS011;61559;50.476;15.588;2022-10-17T10:45:00;22.40;;;11.50;;
73107;SDS011;61559;50.476;15.588;2022-10-17T10:48:04;18.30;;;11.00;;
73107;SDS011;61559;50.476;15.588;2022-10-17T10:50:49;12.40;;;9.00;;
73107;SDS011;61559;50.476;15.588;2022-10-17T10:53:27;15.70;;;9.10;;
73107;SDS011;61559;50.476;15.588;2022-10-17T10:56:04;16.70;;;11.50;;
73107;SDS011;61559;50.476;15.588;2022-10-17T10:58:45;19.50;;;12.10;;
73107;SDS011;61559;50.476;15.588;2022-10-17T11:01:24;18.80;;;12.00;;
73107;SDS011;61559;50.476;15.588;2022-10-17T11:04:20;23.50;;;12.20;;
73107;SDS011;61559;50.476;15.588;2022-10-17T11:06:57;17.30;;;11.00;;
73107;SDS011;61559;50.476;15.588;2022-10-17T11:09:50;14.00;;;8.80;;
73107;SDS011;61559;50.476;15.588;2022-10-17T11:12:27;17.80;;;10.70;;
73107;SDS011;61559;50.476;15.588;2022-10-17T11:15:06;18.50;;;11.60;;
73107;SDS011;61559;50.476;15.588;2022-10-17T11:17:47;18.00;;;11.00;;
73107;SDS011;61559;50.476;15.588;2022-10-17T11:20:28;20.30;;;10.90;;
73107;SDS011;61559;50.476;15.588;2022-10-17T11:23:09;18.00;;;10.10;;
73107;SDS011;61559;50.476;15.588;2022-10-17T11:25:48;16.80;;;10.80;;
73107;SDS011;61559;50.476;15.588;2022-10-17T11:28:21;19.40;;;10.60;;
73107;SDS011;61559;50.476;15.588;2022-10-17T11:30:55;18.50;;;11.10;;
73107;SDS011;61559;50.476;15.588;2022-10-17T11:33:37;16.30;;;10.10;;
73107;SDS011;61559;50.476;15.588;2022-10-17T11:36:15;17.50;;;11.20;;
73107;SDS011;61559;50.476;15.588;2022-10-17T11:38:50;18.10;;;10.70;;
73107;SDS011;61559;50.476;15.588;2022-10-17T11:41:26;17.60;;;10.40;;
73107;SDS011;61559;50.476;15.588;2022-10-17T11:44:04;16.40;;;9.50;;
73107;SDS011;61559;50.476;15.588;2022-10-17T11:46:41;14.90;;;10.20;;
73107;SDS011;61559;50.476;15.588;2022-10-17T11:49:17;18.90;;;10.80;;
73107;SDS011;61559;50.476;15.588;2022-10-17T11:51:51;17.30;;;10.60;;
73107;SDS011;61559;50.476;15.588;2022-10-17T11:54:32;15.20;;;10.00;;
73107;SDS011;61559;50.476;15.588;2022-10-17T11:57:18;18.50;;;10.50;;
73107;SDS011;61559;50.476;15.588;2022-10-17T12:00:05;16.20;;;9.80;;
73107;SDS011;61559;50.476;15.588;2022-10-17T12:02:49;15.00;;;9.00;;
73107;SDS011;61559;50.476;15.588;2022-10-17T12:05:26;18.70;;;10.40;;
73107;SDS011;61559;50.476;15.588;2022-10-17T12:08:04;14.80;;;9.30;;
73107;SDS011;61559;50.476;15.588;2022-10-17T12:10:43;17.60;;;10.40;;
73107;SDS011;61559;50.476;15.588;2022-10-17T12:19:22;16.70;;;10.30;;
73107;SDS011;61559;50.476;15.588;2022-10-17T12:21:56;15.10;;;9.60;;
73107;SDS011;61559;50.476;15.588;2022-10-17T12:27:37;16.50;;;9.50;;
73107;SDS011;61559;50.476;15.588;2022-10-17T12:30:17;15.00;;;10.00;;
73107;SDS011;61559;50.476;15.588;2022-10-17T12:32:55;15.50;;;10.00;;
73107;SDS011;61559;50.476;15.588;2022-10-17T12:35:37;15.90;;;9.40;;
73107;SDS011;61559;50.476;15.588;2022-10-17T12:40:59;12.40;;;8.30;;
73107;SDS011;61559;50.476;15.588;2022-10-17T12:52:23;15.10;;;8.40;;
73107;SDS011;61559;50.476;15.588;2022-10-17T12:55:16;15.20;;;8.90;;
73107;SDS011;61559;50.476;15.588;2022-10-17T12:57:52;16.30;;;9.20;;
73107;SDS011;61559;50.476;15.588;2022-10-17T13:00:32;14.70;;;9.80;;
73107;SDS011;61559;50.476;15.588;2022-10-17T13:03:27;15.40;;;9.70;;
73107;SDS011;61559;50.476;15.588;2022-10-17T13:06:01;14.30;;;9.40;;
73107;SDS011;61559;50.476;15.588;2022-10-17T13:08:36;13.00;;;9.00;;
73107;SDS011;61559;50.476;15.588;2022-10-17T13:11:11;13.60;;;8.30;;
73107;SDS011;61559;50.476;15.588;2022-10-17T13:13:43;14.00;;;8.70;;
73107;SDS011;61559;50.476;15.588;2022-10-17T13:19:12;14.20;;;9.20;;
73107;SDS011;61559;50.476;15.588;2022-10-17T13:21:49;11.90;;;8.90;;
73107;SDS011;61559;50.476;15.588;2022-10-17T13:24:26;14.30;;;8.60;;
73107;SDS011;61559;50.476;15.588;2022-10-17T13:29:29;12.50;;;8.10;;
73107;SDS011;61559;50.476;15.588;2022-10-17T13:32:02;12.20;;;8.50;;
73107;SDS011;61559;50.476;15.588;2022-10-17T13:34:33;13.90;;;8.80;;
73107;SDS011;61559;50.476;15.588;2022-10-17T13:37:04;15.50;;;8.90;;
73107;SDS011;61559;50.476;15.588;2022-10-17T13:39:41;15.10;;;9.60;;
73107;SDS011;61559;50.476;15.588;2022-10-17T13:42:26;15.70;;;8.50;;
73107;SDS011;61559;50.476;15.588;2022-10-17T13:44:59;16.50;;;9.30;;
73107;SDS011;61559;50.476;15.588;2022-10-17T13:47:31;14.70;;;9.10;;
73107;SDS011;61559;50.476;15.588;2022-10-17T13:50:06;17.30;;;8.80;;
73107;SDS011;61559;50.476;15.588;2022-10-17T13:53:13;15.60;;;8.60;;
73107;SDS011;61559;50.476;15.588;2022-10-17T13:55:50;14.30;;;8.40;;
73107;SDS011;61559;50.476;15.588;2022-10-17T13:58:47;12.40;;;7.60;;
73107;SDS011;61559;50.476;15.588;2022-10-17T14:01:19;14.80;;;8.40;;
73107;SDS011;61559;50.476;15.588;2022-10-17T14:03:51;13.60;;;8.80;;
73107;SDS011;61559;50.476;15.588;2022-10-17T14:06:35;13.80;;;9.60;;
73107;SDS011;61559;50.476;15.588;2022-10-17T14:09:19;13.60;;;9.10;;
73107;SDS011;61559;50.476;15.588;2022-10-17T14:11:58;11.10;;;8.00;;
73107;SDS011;61559;50.476;15.588;2022-10-17T14:14:32;12.00;;;9.00;;
73107;SDS011;61559;50.476;15.588;2022-10-17T14:17:24;15.40;;;8.80;;
73107;SDS011;61559;50.476;15.588;2022-10-17T14:19:57;12.10;;;8.10;;
73107;SDS011;61559;50.476;15.588;2022-10-17T14:22:50;13.20;;;7.80;;
73107;SDS011;61559;50.476;15.588;2022-10-17T14:25:41;12.90;;;8.00;;
73107;SDS011;61559;50.476;15.588;2022-10-17T14:28:13;11.60;;;8.10;;
73107;SDS011;61559;50.476;15.588;2022-10-17T14:30:45;11.70;;;7.90;;
73107;SDS011;61559;50.476;15.588;2022-10-17T14:33:30;11.90;;;7.50;;
73107;SDS011;61559;50.476;15.588;2022-10-17T14:36:04;12.60;;;7.80;;
73107;SDS011;61559;50.476;15.588;2022-10-17T14:38:35;9.90;;;7.10;;
73107;SDS011;61559;50.476;15.588;2022-10-17T14:41:07;11.70;;;7.30;;
73107;SDS011;61559;50.476;15.588;2022-10-17T14:44:17;12.30;;;7.10;;
73107;SDS011;61559;50.476;15.588;2022-10-17T14:46:58;13.20;;;7.60;;
73107;SDS011;61559;50.476;15.588;2022-10-17T14:50:03;12.90;;;7.20;;
73107;SDS011;61559;50.476;15.588;2022-10-17T14:53:02;9.90;;;7.00;;
73107;SDS011;61559;50.476;15.588;2022-10-17T14:55:56;11.20;;;7.40;;
73107;SDS011;61559;50.476;15.588;2022-10-17T14:58:30;12.40;;;7.70;;
73107;SDS011;61559;50.476;15.588;2022-10-17T15:01:02;14.80;;;7.30;;
73107;SDS011;61559;50.476;15.588;2022-10-17T15:03:33;11.60;;;6.90;;
73107;SDS011;61559;50.476;15.588;2022-10-17T15:06:11;12.80;;;7.00;;
73107;SDS011;61559;50.476;15.588;2022-10-17T15:08:47;11.60;;;6.90;;
73107;SDS011;61559;50.476;15.588;2022-10-17T15:11:18;10.70;;;7.40;;
73107;SDS011;61559;50.476;15.588;2022-10-17T15:13:49;9.70;;;7.50;;
73107;SDS011;61559;50.476;15.588;2022-10-17T15:16:24;11.50;;;7.60;;
73107;SDS011;61559;50.476;15.588;2022-10-17T15:19:12;12.60;;;7.50;;
73107;SDS011;61559;50.476;15.588;2022-10-17T15:21:43;16.30;;;7.70;;
73107;SDS011;61559;50.476;15.588;2022-10-17T15:24:14;12.30;;;7.50;;
73107;SDS011;61559;50.476;15.588;2022-10-17T15:26:45;11.40;;;7.80;;
73107;SDS011;61559;50.476;15.588;2022-10-17T15:29:17;9.90;;;6.90;;
73107;SDS011;61559;50.476;15.588;2022-10-17T15:31:48;10.60;;;7.50;;
73107;SDS011;61559;50.476;15.588;2022-10-17T15:34:18;11.40;;;7.80;;
73107;SDS011;61559;50.476;15.588;2022-10-17T15:36:50;11.70;;;7.60;;
73107;SDS011;61559;50.476;15.588;2022-10-17T15:39:21;11.10;;;7.00;;
73107;SDS011;61559;50.476;15.588;2022-10-17T15:41:52;11.90;;;8.10;;
73107;SDS011;61559;50.476;15.588;2022-10-17T15:44:23;11.90;;;7.70;;
73107;SDS011;61559;50.476;15.588;2022-10-17T15:46:54;11.40;;;7.10;;
73107;SDS011;61559;50.476;15.588;2022-10-17T15:49:25;11.10;;;7.70;;
73107;SDS011;61559;50.476;15.588;2022-10-17T15:51:56;11.10;;;7.70;;
73107;SDS011;61559;50.476;15.588;2022-10-17T15:54:27;12.60;;;7.90;;
73107;SDS011;61559;50.476;15.588;2022-10-17T15:56:58;12.30;;;8.40;;
73107;SDS011;61559;50.476;15.588;2022-10-17T15:59:30;14.40;;;8.80;;
73107;SDS011;61559;50.476;15.588;2022-10-17T16:02:02;10.90;;;7.70;;
73107;SDS011;61559;50.476;15.588;2022-10-17T16:04:37;13.70;;;8.60;;
73107;SDS011;61559;50.476;15.588;2022-10-17T16:07:09;15.80;;;8.70;;
73107;SDS011;61559;50.476;15.588;2022-10-17T16:09:39;13.10;;;7.90;;
73107;SDS011;61559;50.476;15.588;2022-10-17T16:12:11;14.20;;;8.30;;
73107;SDS011;61559;50.476;15.588;2022-10-17T16:14:44;16.30;;;8.30;;
73107;SDS011;61559;50.476;15.588;2022-10-17T16:17:16;12.60;;;8.20;;
73107;SDS011;61559;50.476;15.588;2022-10-17T16:19:46;13.70;;;8.10;;
73107;SDS011;61559;50.476;15.588;2022-10-17T16:22:19;14.30;;;8.90;;
73107;SDS011;61559;50.476;15.588;2022-10-17T16:24:54;16.40;;;8.40;;
73107;SDS011;61559;50.476;15.588;2022-10-17T16:27:26;14.30;;;7.60;;
73107;SDS011;61559;50.476;15.588;2022-10-17T16:29:57;12.70;;;7.90;;
73107;SDS011;61559;50.476;15.588;2022-10-17T16:32:29;12.10;;;8.10;;
73107;SDS011;61559;50.476;15.588;2022-10-17T16:35:00;14.70;;;8.50;;
73107;SDS011;61559;50.476;15.588;2022-10-17T16:37:31;15.80;;;8.90;;
73107;SDS011;61559;50.476;15.588;2022-10-17T16:40:03;12.50;;;7.70;;
73107;SDS011;61559;50.476;15.588;2022-10-17T16:42:34;12.80;;;8.10;;
73107;SDS011;61559;50.476;15.588;2022-10-17T16:45:06;12.50;;;7.80;;
73107;SDS011;61559;50.476;15.588;2022-10-17T16:47:38;15.70;;;8.50;;
73107;SDS011;61559;50.476;15.588;2022-10-17T16:50:09;31.60;;;21.10;;